Bathgate, North Dakota
Current Conditions -  °F | °C
As of 12:35 PM on Thursday 29 Jan 2015 (Local Time) from K2C8 Reporting Station
Scattered Clouds Scattered Clouds  
Wind Chill: -9°   Ceiling: Unl
Heat Index:   Visibility: 9mi
Dew Point:   Wind: 16mph
Humidity: 73%   Direction: 350°N
Pressure: 30.54"   Gusts: 25mph
Location:  48.88°N, 97.48°W
Report Text: K2C8 291835Z AUTO 35014G22KT 9SM FEW015 SCT020 M13/M17 A3054 RMK AO2
Loading
Personal Weather Stations






























Interactive Weather Map New forecast layout! Learn more

10-Day Weather Forecast

Advertisements
Track Severe Weather on mobile